Time,TemperatureF,DewpointF,PressureIn,WindDirection,WindDirectionDegrees,WindSpeedMPH,WindSpeedGustMPH,Humidity,HourlyPrecipIn,Conditions,Clouds,dailyrainin,SoftwareType,DateUTC
2013-04-18 00:14:00,44.6,43.0,29.93,ESE,111,1.0,5.0,93,0.00,,,0.24,weatherlink.com 1.10,2013-04-18 04:14:00,
2013-04-18 00:29:00,45.0,43.0,29.93,South,190,3.0,8.0,93,0.00,,,0.00,weatherlink.com 1.10,2013-04-18 04:29:00,
2013-04-18 00:45:00,45.3,43.0,29.91,ESE,107,2.0,8.0,92,0.00,,,0.00,weatherlink.com 1.10,2013-04-18 04:45:00,
2013-04-18 01:00:00,45.7,43.0,29.91,East,98,6.0,11.0,91,0.00,,,0.00,weatherlink.com 1.10,2013-04-18 05:00:00,
2013-04-18 01:15:00,45.9,43.0,29.90,SE,126,3.0,10.0,90,0.00,,,0.00,weatherlink.com 1.10,2013-04-18 05:15:00,
2013-04-18 01:30:00,46.0,43.0,29.89,SE,142,8.0,13.0,89,0.00,,,0.00,weatherlink.com 1.10,2013-04-18 05:30:00,
2013-04-18 01:45:00,45.5,43.0,29.88,SE,136,1.0,10.0,89,0.00,,,0.00,weatherlink.com 1.10,2013-04-18 05:45:00,
2013-04-18 02:00:00,45.0,42.0,29.88,East,82,5.0,11.0,88,0.00,,,0.00,weatherlink.com 1.10,2013-04-18 06:00:00,
2013-04-18 02:15:00,44.7,41.0,29.87,SE,126,4.0,13.0,88,0.00,,,0.00,weatherlink.com 1.10,2013-04-18 06:15:00,
2013-04-18 02:30:00,44.7,41.0,29.86,East,87,5.0,9.0,88,0.00,,,0.00,weatherlink.com 1.10,2013-04-18 06:30:00,
2013-04-18 02:45:00,44.8,42.0,29.83,South,188,2.0,9.0,89,0.00,,,0.00,weatherlink.com 1.10,2013-04-18 06:45:00,
2013-04-18 03:00:00,44.9,42.0,29.82,ESE,115,8.0,10.0,89,0.00,,,0.00,weatherlink.com 1.10,2013-04-18 07:00:00,
2013-04-18 03:15:00,45.0,42.0,29.81,SE,144,1.0,11.0,89,0.00,,,0.00,weatherlink.com 1.10,2013-04-18 07:15:00,
2013-04-18 03:30:00,45.2,43.0,29.80,NNE,25,0.0,7.0,90,0.00,,,0.00,weatherlink.com 1.10,2013-04-18 07:30:00,
2013-04-18 03:45:00,45.4,43.0,29.80,SSE,167,1.0,6.0,91,0.00,,,0.00,weatherlink.com 1.10,2013-04-18 07:45:00,
2013-04-18 04:00:00,45.6,43.0,29.79,ESE,107,4.0,10.0,91,0.00,,,0.00,weatherlink.com 1.10,2013-04-18 08:00:00,
2013-04-18 04:15:00,45.8,44.0,29.79,South,190,1.0,8.0,92,0.00,,,0.00,weatherlink.com 1.10,2013-04-18 08:15:00,
2013-04-18 04:30:00,46.4,45.0,29.78,ENE,63,4.0,8.0,94,0.00,,,0.00,weatherlink.com 1.10,2013-04-18 08:30:00,
2013-04-18 04:45:00,47.2,46.0,29.78,SE,126,2.0,6.0,94,0.00,,,0.00,weatherlink.com 1.10,2013-04-18 08:45:00,
2013-04-18 05:00:00,47.4,46.0,29.77,SE,126,2.0,9.0,93,0.00,,,0.00,weatherlink.com 1.10,2013-04-18 09:00:00,
2013-04-18 05:15:00,48.0,46.0,29.77,ESE,123,0.0,3.0,94,0.00,,,0.00,weatherlink.com 1.10,2013-04-18 09:15:00,
2013-04-18 05:30:00,48.3,47.0,29.76,ESE,112,2.0,4.0,94,0.00,,,0.00,weatherlink.com 1.10,2013-04-18 09:30:00,
2013-04-18 05:45:00,48.7,47.0,29.76,ESE,119,0.0,2.0,95,0.00,,,0.00,weatherlink.com 1.10,2013-04-18 09:45:00,
2013-04-18 06:00:00,49.0,48.0,29.76,South,191,0.0,2.0,95,0.00,,,0.00,weatherlink.com 1.10,2013-04-18 10:00:00,
2013-04-18 06:16:00,49.2,48.0,29.75,SSE,159,0.0,3.0,95,0.00,,,0.00,weatherlink.com 1.10,2013-04-18 10:16:00,
2013-04-18 06:31:00,50.1,49.0,29.74,South,180,0.0,2.0,97,0.00,,,0.00,weatherlink.com 1.10,2013-04-18 10:31:00,
2013-04-18 06:46:00,50.6,50.0,29.73,SSE,154,0.0,3.0,96,0.00,,,0.00,weatherlink.com 1.10,2013-04-18 10:46:00,
2013-04-18 07:01:00,50.7,50.0,29.73,SSE,156,0.0,2.0,96,0.00,,,0.00,weatherlink.com 1.10,2013-04-18 11:01:00,
2013-04-18 07:16:00,50.8,50.0,29.73,SSW,196,0.0,3.0,96,0.00,,,0.00,weatherlink.com 1.10,2013-04-18 11:16:00,
2013-04-18 07:31:00,51.7,51.0,29.73,SSE,148,1.0,3.0,97,0.00,,,0.00,weatherlink.com 1.10,2013-04-18 11:31:00,
2013-04-18 07:46:00,52.4,52.0,29.73,SSE,150,1.0,3.0,97,0.00,,,0.00,weatherlink.com 1.10,2013-04-18 11:46:00,
2013-04-18 08:01:00,53.4,53.0,29.73,SSE,163,0.0,3.0,97,0.00,,,0.00,weatherlink.com 1.10,2013-04-18 12:01:00,
2013-04-18 08:16:00,54.0,53.0,29.73,SW,219,0.0,6.0,97,0.00,,,0.00,weatherlink.com 1.10,2013-04-18 12:16:00,
2013-04-18 08:31:00,56.7,56.0,29.72,SW,217,6.0,7.0,98,0.00,,,0.00,weatherlink.com 1.10,2013-04-18 12:31:00,
2013-04-18 08:46:00,60.1,60.0,29.70,South,189,9.0,9.0,98,0.00,,,0.00,weatherlink.com 1.10,2013-04-18 12:46:00,
2013-04-18 09:01:00,62.8,62.0,29.70,SW,216,6.0,11.0,96,0.00,,,0.00,weatherlink.com 1.10,2013-04-18 13:01:00,
2013-04-18 09:16:00,64.6,62.0,29.68,WSW,244,4.0,9.0,92,0.00,,,0.00,weatherlink.com 1.10,2013-04-18 13:16:00,
2013-04-18 09:31:00,67.0,63.0,29.67,WSW,238,3.0,12.0,88,0.00,,,0.00,weatherlink.com 1.10,2013-04-18 13:31:00,
2013-04-18 09:46:00,68.4,64.0,29.66,SSW,208,5.0,10.0,85,0.00,,,0.00,weatherlink.com 1.10,2013-04-18 13:46:00,
2013-04-18 10:01:00,69.8,64.0,29.65,SW,214,5.0,11.0,83,0.01,,,0.01,weatherlink.com 1.10,2013-04-18 14:01:00,
2013-04-18 10:16:00,70.0,65.0,29.66,SSW,212,5.0,10.0,84,0.01,,,0.01,weatherlink.com 1.10,2013-04-18 14:16:00,
2013-04-18 10:32:00,70.7,65.0,29.65,SW,220,9.0,12.0,83,0.01,,,0.01,weatherlink.com 1.10,2013-04-18 14:32:00,
2013-04-18 10:46:00,72.9,66.0,29.66,WSW,244,8.0,13.0,78,0.01,,,0.01,weatherlink.com 1.10,2013-04-18 14:46:00,
2013-04-18 11:01:00,72.5,65.0,29.65,SW,217,9.0,13.0,78,0.00,,,0.01,weatherlink.com 1.10,2013-04-18 15:01:00,
2013-04-18 11:17:00,72.1,65.0,29.64,WSW,237,9.0,19.0,78,0.00,,,0.01,weatherlink.com 1.10,2013-04-18 15:17:00,
2013-04-18 11:32:00,72.8,65.0,29.64,SW,221,7.0,13.0,77,0.00,,,0.01,weatherlink.com 1.10,2013-04-18 15:32:00,
2013-04-18 11:47:00,72.3,65.0,29.64,SW,214,5.0,16.0,77,0.00,,,0.01,weatherlink.com 1.10,2013-04-18 15:47:00,
2013-04-18 12:02:00,72.4,65.0,29.63,South,188,11.0,16.0,78,0.00,,,0.01,weatherlink.com 1.10,2013-04-18 16:02:00,
2013-04-18 12:17:00,71.6,65.0,29.65,SW,227,8.0,16.0,79,0.00,,,0.01,weatherlink.com 1.10,2013-04-18 16:17:00,
2013-04-18 12:32:00,65.9,60.0,29.68,SW,228,8.0,15.0,80,0.00,,,0.01,weatherlink.com 1.10,2013-04-18 16:32:00,
2013-04-18 12:47:00,62.9,60.0,29.68,SW,236,5.0,8.0,89,0.06,,,0.07,weatherlink.com 1.10,2013-04-18 16:47:00,
2013-04-18 13:02:00,61.5,60.0,29.68,WSW,242,5.0,8.0,93,0.11,,,0.12,weatherlink.com 1.10,2013-04-18 17:02:00,
2013-04-18 13:17:00,61.2,60.0,29.68,WSW,239,3.0,4.0,94,0.17,,,0.18,weatherlink.com 1.10,2013-04-18 17:17:00,
2013-04-18 13:32:00,61.3,60.0,29.69,SW,219,2.0,5.0,95,0.18,,,0.19,weatherlink.com 1.10,2013-04-18 17:32:00,
2013-04-18 13:47:00,61.1,59.0,29.69,SW,231,3.0,5.0,94,0.12,,,0.19,weatherlink.com 1.10,2013-04-18 17:47:00,
2013-04-18 14:02:00,61.2,60.0,29.67,SW,221,2.0,4.0,95,0.07,,,0.19,weatherlink.com 1.10,2013-04-18 18:02:00,
2013-04-18 14:17:00,61.7,60.0,29.67,SW,223,2.0,8.0,95,0.01,,,0.19,weatherlink.com 1.10,2013-04-18 18:17:00,
2013-04-18 14:32:00,61.4,60.0,29.68,SW,236,3.0,4.0,95,0.00,,,0.19,weatherlink.com 1.10,2013-04-18 18:32:00,
2013-04-18 14:47:00,61.1,60.0,29.69,SW,223,2.0,5.0,95,0.01,,,0.20,weatherlink.com 1.10,2013-04-18 18:47:00,
2013-04-18 15:02:00,60.9,60.0,29.69,SW,221,2.0,5.0,96,0.07,,,0.26,weatherlink.com 1.10,2013-04-18 19:02:00,
2013-04-18 15:17:00,60.5,59.0,29.68,SW,233,3.0,5.0,96,0.12,,,0.31,weatherlink.com 1.10,2013-04-18 19:17:00,
2013-04-18 15:32:00,60.2,59.0,29.71,SW,223,3.0,8.0,96,0.16,,,0.35,weatherlink.com 1.10,2013-04-18 19:32:00,
2013-04-18 15:47:00,60.0,59.0,29.70,WSW,244,2.0,4.0,96,0.22,,,0.42,weatherlink.com 1.10,2013-04-18 19:47:00,
2013-04-18 16:03:00,59.8,59.0,29.68,SW,223,1.0,4.0,96,0.20,,,0.47,weatherlink.com 1.10,2013-04-18 20:03:00,
2013-04-18 16:17:00,59.6,59.0,29.69,SSW,204,4.0,9.0,97,0.19,,,0.50,weatherlink.com 1.10,2013-04-18 20:17:00,
2013-04-18 16:32:00,59.5,59.0,29.68,SW,216,5.0,6.0,97,0.15,,,0.50,weatherlink.com 1.10,2013-04-18 20:32:00,
2013-04-18 17:02:00,59.3,59.0,29.67,WSW,248,2.0,4.0,97,0.09,,,0.55,weatherlink.com 1.10,2013-04-18 21:02:00,
2013-04-18 17:17:00,58.9,58.0,29.67,SW,236,2.0,3.0,97,0.08,,,0.58,weatherlink.com 1.10,2013-04-18 21:17:00,
2013-04-18 17:32:00,59.0,58.0,29.68,SW,229,4.0,4.0,97,0.16,,,0.66,weatherlink.com 1.10,2013-04-18 21:32:00,
2013-04-18 17:47:00,59.0,58.0,29.69,SW,216,3.0,4.0,97,0.24,,,0.76,weatherlink.com 1.10,2013-04-18 21:47:00,
2013-04-18 18:02:00,59.0,58.0,29.67,SSW,198,0.0,3.0,97,0.25,,,0.80,weatherlink.com 1.10,2013-04-18 22:02:00,
2013-04-18 18:17:00,58.9,58.0,29.66,SSW,207,0.0,5.0,97,0.24,,,0.82,weatherlink.com 1.10,2013-04-18 22:17:00,
2013-04-18 18:32:00,58.8,58.0,29.67,SW,224,2.0,5.0,97,0.18,,,0.86,weatherlink.com 1.10,2013-04-18 22:32:00,
2013-04-18 18:47:00,58.8,58.0,29.68,SSW,200,0.0,7.0,97,0.14,,,0.90,weatherlink.com 1.10,2013-04-18 22:47:00,
2013-04-18 19:02:00,58.7,58.0,29.68,SSW,212,1.0,5.0,97,0.15,,,0.96,weatherlink.com 1.10,2013-04-18 23:02:00,
2013-04-18 19:17:00,58.7,58.0,29.68,WSW,258,3.0,7.0,97,0.16,,,0.99,weatherlink.com 1.10,2013-04-18 23:17:00,
2013-04-18 19:32:00,58.6,58.0,29.65,SW,229,1.0,3.0,97,0.13,,,1.00,weatherlink.com 1.10,2013-04-18 23:32:00,
2013-04-18 19:47:00,58.5,58.0,29.66,SW,216,1.0,4.0,97,0.12,,,1.02,weatherlink.com 1.10,2013-04-18 23:47:00,
2013-04-18 20:02:00,58.4,58.0,29.64,SSE,161,1.0,4.0,98,0.08,,,1.04,weatherlink.com 1.10,2013-04-19 00:02:00,
2013-04-18 20:17:00,58.3,58.0,29.64,SW,216,1.0,6.0,98,0.08,,,1.07,weatherlink.com 1.10,2013-04-19 00:17:00,
2013-04-18 20:32:00,58.2,57.0,29.64,South,185,0.0,6.0,97,0.09,,,1.09,weatherlink.com 1.10,2013-04-19 00:32:00,
2013-04-18 20:47:00,58.0,57.0,29.64,SSW,212,2.0,7.0,97,0.09,,,1.11,weatherlink.com 1.10,2013-04-19 00:47:00,
2013-04-18 21:02:00,58.1,58.0,29.62,South,171,3.0,7.0,98,0.10,,,1.14,weatherlink.com 1.10,2013-04-19 01:02:00,
2013-04-18 21:17:00,58.1,58.0,29.61,ESE,105,0.0,6.0,98,0.10,,,1.17,weatherlink.com 1.10,2013-04-19 01:17:00,
2013-04-18 21:32:00,58.0,58.0,29.64,South,172,1.0,7.0,98,0.12,,,1.21,weatherlink.com 1.10,2013-04-19 01:32:00,
2013-04-18 21:47:00,58.0,58.0,29.63,SW,215,0.0,6.0,98,0.11,,,1.23,weatherlink.com 1.10,2013-04-19 01:47:00,
2013-04-18 22:02:00,58.1,58.0,29.62,SE,144,0.0,5.0,98,0.14,,,1.28,weatherlink.com 1.10,2013-04-19 02:02:00,
2013-04-18 22:17:00,58.2,58.0,29.60,SE,128,0.0,5.0,98,0.18,,,1.36,weatherlink.com 1.10,2013-04-19 02:17:00,
2013-04-18 22:32:00,58.2,58.0,29.59,South,169,0.0,7.0,98,0.22,,,1.43,weatherlink.com 1.10,2013-04-19 02:32:00,
2013-04-18 22:47:00,58.2,58.0,29.59,SSE,150,0.0,6.0,98,0.25,,,1.49,weatherlink.com 1.10,2013-04-19 02:47:00,
2013-04-18 23:02:00,58.1,58.0,29.57,ESE,113,2.0,4.0,98,0.26,,,1.55,weatherlink.com 1.10,2013-04-19 03:02:00,
2013-04-18 23:17:00,58.1,58.0,29.56,North,5,1.0,8.0,98,0.25,,,1.61,weatherlink.com 1.10,2013-04-19 03:17:00,
2013-04-18 23:32:00,58.3,58.0,29.55,SSW,196,0.0,9.0,98,0.24,,,1.67,weatherlink.com 1.10,2013-04-19 03:32:00,
2013-04-18 23:47:00,58.4,58.0,29.53,SSW,203,7.0,8.0,98,0.25,,,1.74,weatherlink.com 1.10,2013-04-19 03:47:00,